Time;durP1;ratioP1;P1;durP2;ratioP2;P2;SDS_P1;SDS_P2;PMS_P1;PMS_P2;Temp;Humidity;BMP_temperature;BMP_pressure;BME280_temperature;BME280_humidity;BME280_pressure;Samples;Min_cycle;Max_cycle;Signal;HPM_P1;HPM_P2
2023/05/19 00:01:27;;;;;;;1.98;0.93;;;21.90;35.90;;;;;;5063562;28;20075;-62
2023/05/19 00:04:01;;;;;;;1.92;1.08;;;21.90;35.90;;;;;;5041001;28;20024;-62
2023/05/19 00:06:32;;;;;;;2.05;1.15;;;21.90;35.90;;;;;;5059642;28;20028;-61
2023/05/19 00:09:03;;;;;;;1.60;0.90;;;21.80;35.90;;;;;;5059166;28;20024;-63
2023/05/19 00:11:29;;;;;;;2.28;1.05;;;21.80;35.90;;;;;;5061456;28;21641;-62
2023/05/19 00:13:57;;;;;;;2.75;1.00;;;21.80;36.00;;;;;;5054927;28;20120;-63
2023/05/19 00:16:24;;;;;;;2.03;1.08;;;21.80;36.00;;;;;;5062109;28;20052;-62
2023/05/19 00:18:50;;;;;;;3.22;1.13;;;21.80;36.00;;;;;;5042331;28;20088;-62
2023/05/19 00:21:16;;;;;;;2.75;1.23;;;21.80;36.10;;;;;;5059233;28;20021;-63
2023/05/19 00:23:42;;;;;;;1.85;0.90;;;21.70;36.10;;;;;;5060706;28;20150;-63
2023/05/19 00:26:08;;;;;;;2.10;1.10;;;21.80;36.10;;;;;;5059701;28;20020;-61
2023/05/19 00:28:34;;;;;;;3.25;1.20;;;21.80;36.10;;;;;;5059598;28;20021;-63
2023/05/19 00:31:00;;;;;;;1.70;1.00;;;21.80;36.20;;;;;;5061180;28;20359;-63
2023/05/19 00:33:27;;;;;;;2.20;1.00;;;21.80;36.20;;;;;;5055813;28;20037;-64
2023/05/19 00:35:52;;;;;;;2.70;1.30;;;21.80;36.20;;;;;;5053966;28;20037;-61
2023/05/19 00:38:18;;;;;;;2.58;1.00;;;21.80;36.20;;;;;;5041885;28;20111;-62
2023/05/19 00:40:44;;;;;;;3.33;1.45;;;21.80;36.10;;;;;;5038201;28;20427;-61
2023/05/19 00:43:11;;;;;;;3.33;1.13;;;21.80;36.20;;;;;;5064108;28;20139;-63
2023/05/19 00:45:36;;;;;;;2.10;1.20;;;21.80;36.20;;;;;;5059106;28;20167;-62
2023/05/19 00:48:04;;;;;;;1.52;1.00;;;21.80;36.20;;;;;;5063445;28;20085;-61
2023/05/19 00:50:30;;;;;;;2.83;0.90;;;21.80;36.20;;;;;;5037134;28;20036;-62
2023/05/19 00:52:56;;;;;;;1.80;0.90;;;21.80;36.20;;;;;;5056226;28;20017;-62
2023/05/19 00:55:25;;;;;;;2.55;1.10;;;21.80;36.20;;;;;;5061692;28;20032;-61
2023/05/19 00:57:52;;;;;;;2.45;1.13;;;21.80;36.20;;;;;;5041888;28;20333;-62
2023/05/19 01:00:19;;;;;;;1.50;0.90;;;21.80;36.30;;;;;;5041345;28;20108;-61
2023/05/19 01:02:45;;;;;;;3.72;1.20;;;21.80;36.20;;;;;;5059453;28;20495;-63
2023/05/19 01:05:12;;;;;;;2.38;0.93;;;21.80;36.20;;;;;;5046013;28;20112;-61
2023/05/19 01:07:40;;;;;;;2.17;0.90;;;21.80;36.20;;;;;;5041577;28;20063;-61
2023/05/19 01:10:06;;;;;;;2.58;0.98;;;21.80;36.20;;;;;;5059196;28;20017;-63
2023/05/19 01:12:33;;;;;;;2.05;0.90;;;21.80;36.20;;;;;;5056751;28;20401;-63
2023/05/19 01:15:01;;;;;;;3.47;1.10;;;21.80;36.20;;;;;;5038309;28;20025;-63
2023/05/19 01:17:36;;;;;;;2.42;0.80;;;21.80;36.20;;;;;;5036555;28;20504;-61
2023/05/19 01:20:15;;;;;;;2.20;0.95;;;21.80;36.20;;;;;;5056919;28;20376;-64
2023/05/19 01:23:20;;;;;;;1.92;0.90;;;21.80;36.30;;;;;;5058469;28;20024;-63
2023/05/19 01:26:11;;;;;;;2.10;1.08;;;21.80;36.30;;;;;;5036379;28;20043;-62
2023/05/19 01:28:37;;;;;;;2.08;0.88;;;21.80;36.30;;;;;;5042825;28;20063;-63
2023/05/19 01:31:06;;;;;;;1.67;0.95;;;21.80;36.30;;;;;;5027190;28;20420;-63
2023/05/19 01:33:32;;;;;;;2.53;1.15;;;21.80;36.30;;;;;;5041824;28;20085;-62
2023/05/19 01:36:02;;;;;;;1.52;0.85;;;21.80;36.30;;;;;;5046763;28;20032;-60
2023/05/19 01:38:29;;;;;;;3.03;0.93;;;21.80;36.30;;;;;;5055667;28;20041;-62
2023/05/19 01:40:56;;;;;;;1.92;1.00;;;21.80;36.40;;;;;;5042996;28;20035;-61
2023/05/19 01:43:24;;;;;;;2.25;1.02;;;21.80;36.30;;;;;;5057749;28;20368;-61
2023/05/19 01:45:53;;;;;;;1.98;0.98;;;21.80;36.30;;;;;;5040508;28;20028;-61
2023/05/19 01:48:20;;;;;;;3.47;1.15;;;21.80;36.30;;;;;;5059760;28;20388;-63
2023/05/19 01:50:46;;;;;;;1.85;1.00;;;21.80;36.30;;;;;;5027847;28;20052;-61
2023/05/19 01:53:12;;;;;;;2.17;1.00;;;21.80;36.30;;;;;;5062672;28;20032;-62
2023/05/19 01:55:44;;;;;;;2.20;1.02;;;21.80;36.30;;;;;;5040013;28;20059;-62
2023/05/19 01:58:41;;;;;;;2.38;0.93;;;21.80;36.30;;;;;;5056196;28;20029;-62
2023/05/19 02:01:32;;;;;;;3.40;1.00;;;21.80;36.30;;;;;;5046828;28;20033;-63
2023/05/19 02:04:14;;;;;;;2.15;1.10;;;21.80;36.30;;;;;;5058713;28;20285;-63
2023/05/19 02:06:48;;;;;;;2.58;0.98;;;21.80;36.30;;;;;;5039158;28;20065;-63
2023/05/19 02:09:35;;;;;;;1.52;0.80;;;21.70;36.30;;;;;;5055848;28;20021;-61
2023/05/19 02:12:22;;;;;;;1.98;0.98;;;21.80;36.30;;;;;;5036936;28;20024;-62
2023/05/19 02:15:01;;;;;;;2.20;1.00;;;21.70;36.30;;;;;;5054175;28;20025;-61
2023/05/19 02:17:31;;;;;;;1.92;0.90;;;21.80;36.30;;;;;;5058463;28;20155;-62
2023/05/19 02:19:58;;;;;;;1.67;1.08;;;21.70;36.30;;;;;;5041328;28;20071;-62
2023/05/19 02:22:25;;;;;;;2.08;0.90;;;21.70;36.30;;;;;;5043238;28;20067;-61
2023/05/19 02:24:50;;;;;;;2.35;1.00;;;21.70;36.30;;;;;;5038912;28;20029;-62
2023/05/19 02:27:17;;;;;;;2.03;0.90;;;21.70;36.30;;;;;;5038814;28;20431;-62
2023/05/19 02:29:43;;;;;;;2.55;1.00;;;21.70;36.30;;;;;;5056363;28;20040;-61
2023/05/19 02:32:10;;;;;;;2.90;1.20;;;21.70;36.30;;;;;;5055089;28;21539;-61
2023/05/19 02:34:36;;;;;;;2.25;1.08;;;21.70;36.30;;;;;;5035769;28;20356;-62
2023/05/19 02:37:03;;;;;;;3.13;1.13;;;21.70;36.30;;;;;;5058241;28;20036;-62
2023/05/19 02:39:33;;;;;;;3.22;0.93;;;21.70;36.30;;;;;;5040875;28;20048;-63
2023/05/19 02:42:00;;;;;;;1.98;0.90;;;21.70;36.30;;;;;;5036508;28;20223;-62
2023/05/19 02:44:26;;;;;;;2.47;1.10;;;21.70;36.30;;;;;;5059278;28;20109;-62
2023/05/19 02:46:52;;;;;;;2.67;1.27;;;21.70;36.30;;;;;;5040447;28;20036;-63
2023/05/19 02:49:17;;;;;;;1.92;1.00;;;21.70;36.30;;;;;;5042496;28;20028;-61
2023/05/19 02:51:43;;;;;;;2.55;1.15;;;21.70;36.40;;;;;;5063931;28;20028;-63
2023/05/19 02:54:09;;;;;;;2.78;1.33;;;21.70;36.40;;;;;;5042459;28;20021;-63
2023/05/19 02:56:35;;;;;;;2.05;1.00;;;21.70;36.50;;;;;;5057501;28;20033;-62
2023/05/19 02:59:01;;;;;;;1.83;0.93;;;21.70;36.50;;;;;;5041499;28;20435;-62
2023/05/19 03:01:27;;;;;;;1.95;1.00;;;21.70;36.50;;;;;;5057669;28;20352;-63
2023/05/19 03:03:53;;;;;;;2.20;1.13;;;21.70;36.50;;;;;;5039550;28;20122;-62
2023/05/19 03:06:18;;;;;;;2.55;0.90;;;21.70;36.50;;;;;;5039350;28;20437;-61
2023/05/19 03:08:44;;;;;;;1.73;0.98;;;21.70;36.50;;;;;;5034926;28;20021;-63
2023/05/19 03:11:10;;;;;;;2.30;0.93;;;21.70;36.50;;;;;;5041678;28;20096;-62
2023/05/19 03:13:36;;;;;;;1.88;1.02;;;21.70;36.50;;;;;;5055257;28;20037;-63
2023/05/19 03:16:02;;;;;;;3.88;1.17;;;21.70;36.50;;;;;;5034507;28;20028;-63
2023/05/19 03:18:28;;;;;;;2.58;1.02;;;21.70;36.50;;;;;;5028351;28;20313;-63
2023/05/19 03:20:53;;;;;;;3.03;1.10;;;21.70;36.60;;;;;;5045646;28;20024;-62
2023/05/19 03:23:21;;;;;;;2.50;1.38;;;21.70;36.50;;;;;;5055693;28;20095;-62
2023/05/19 03:25:46;;;;;;;2.72;1.00;;;21.70;36.60;;;;;;5026776;28;20040;-62
2023/05/19 03:28:12;;;;;;;1.48;0.80;;;21.70;36.50;;;;;;5061221;28;20039;-63
2023/05/19 03:30:38;;;;;;;2.00;0.82;;;21.70;36.60;;;;;;5039577;28;20383;-63
2023/05/19 03:33:17;;;;;;;2.72;0.90;;;21.70;36.60;;;;;;5036869;28;20408;-62
2023/05/19 03:35:44;;;;;;;2.17;1.10;;;21.70;36.60;;;;;;5038523;28;20047;-62
2023/05/19 03:38:10;;;;;;;2.58;1.20;;;21.70;36.60;;;;;;5045586;28;20032;-63
2023/05/19 03:40:36;;;;;;;2.40;0.98;;;21.70;36.60;;;;;;5035546;28;20472;-62
2023/05/19 03:43:07;;;;;;;2.33;0.77;;;21.60;36.50;;;;;;5040168;28;20128;-63
2023/05/19 03:45:39;;;;;;;2.53;1.00;;;21.70;36.60;;;;;;5040023;28;20111;-63
2023/05/19 03:48:22;;;;;;;3.35;1.00;;;21.70;36.60;;;;;;5041617;28;20135;-63
2023/05/19 03:51:23;;;;;;;3.15;1.20;;;21.60;36.60;;;;;;5018112;28;20034;-62
2023/05/19 03:53:53;;;;;;;1.45;0.80;;;21.60;36.60;;;;;;5036048;28;20187;-63
2023/05/19 03:56:21;;;;;;;3.20;0.85;;;21.70;36.70;;;;;;5059581;28;20407;-62
2023/05/19 03:58:48;;;;;;;2.78;0.98;;;21.70;36.70;;;;;;5030672;28;20109;-64
2023/05/19 04:01:14;;;;;;;1.48;0.80;;;21.60;36.60;;;;;;5058137;28;20149;-63
2023/05/19 04:03:40;;;;;;;2.08;0.90;;;21.60;36.60;;;;;;5054408;28;20032;-63
2023/05/19 04:06:07;;;;;;;2.45;0.95;;;21.70;36.70;;;;;;5044109;28;20039;-62
2023/05/19 04:08:33;;;;;;;1.55;0.88;;;21.70;36.70;;;;;;5036642;28;20037;-64
2023/05/19 04:10:59;;;;;;;2.03;1.15;;;21.60;36.70;;;;;;5055842;28;20032;-62
2023/05/19 04:13:24;;;;;;;3.15;0.98;;;21.70;36.70;;;;;;5039333;28;20029;-64
2023/05/19 04:15:51;;;;;;;2.72;0.98;;;21.70;36.70;;;;;;5035794;28;20029;-63
2023/05/19 04:18:16;;;;;;;1.50;1.00;;;21.60;36.60;;;;;;5054165;28;20162;-62
2023/05/19 04:20:42;;;;;;;1.70;1.08;;;21.70;36.70;;;;;;5055333;28;20101;-63
2023/05/19 04:23:09;;;;;;;3.17;1.02;;;21.70;36.70;;;;;;5041260;28;20079;-65
2023/05/19 04:25:36;;;;;;;2.72;1.20;;;21.70;36.70;;;;;;5060542;28;20104;-63
2023/05/19 04:28:02;;;;;;;2.90;1.20;;;21.70;36.70;;;;;;5036626;28;20468;-63
2023/05/19 04:30:29;;;;;;;2.47;1.00;;;21.70;36.70;;;;;;5035948;28;20065;-64
2023/05/19 04:32:56;;;;;;;2.38;0.90;;;21.70;36.60;;;;;;5031578;28;20032;-62
2023/05/19 04:35:23;;;;;;;2.38;1.08;;;21.70;36.60;;;;;;5057322;28;20017;-64
2023/05/19 04:37:53;;;;;;;4.22;0.98;;;21.70;36.60;;;;;;5038932;28;20036;-63
2023/05/19 04:40:22;;;;;;;3.63;1.13;;;21.70;36.60;;;;;;5021763;28;20047;-63
2023/05/19 04:42:51;;;;;;;2.67;1.00;;;21.70;36.60;;;;;;5031099;28;20017;-62
2023/05/19 04:45:19;;;;;;;3.20;1.05;;;21.70;36.60;;;;;;5049972;28;20047;-63
2023/05/19 04:47:48;;;;;;;3.47;1.08;;;21.70;36.50;;;;;;5043040;28;20028;-63
2023/05/19 04:50:15;;;;;;;2.72;1.08;;;21.70;37.20;;;;;;5042394;28;20312;-62
2023/05/19 04:52:41;;;;;;;2.72;1.05;;;21.70;36.50;;;;;;5058366;28;20033;-64
2023/05/19 04:55:10;;;;;;;3.25;0.85;;;21.70;36.50;;;;;;5034583;28;20037;-62
2023/05/19 04:57:36;;;;;;;3.20;1.08;;;21.70;36.50;;;;;;5037204;28;20054;-61
2023/05/19 05:00:06;;;;;;;2.50;1.15;;;21.80;36.50;;;;;;5036791;28;20025;-63
2023/05/19 05:02:37;;;;;;;3.00;0.90;;;21.80;36.50;;;;;;5032800;28;20094;-62
2023/05/19 05:05:03;;;;;;;2.75;1.05;;;21.70;36.40;;;;;;5038615;28;20020;-62
2023/05/19 05:07:29;;;;;;;1.73;0.80;;;21.70;36.40;;;;;;5055144;28;20068;-62
2023/05/19 05:09:55;;;;;;;2.22;0.95;;;21.70;36.40;;;;;;5039420;28;20068;-63
2023/05/19 05:12:21;;;;;;;2.60;1.00;;;21.80;36.50;;;;;;5025805;28;20416;-63
2023/05/19 05:14:47;;;;;;;3.28;1.25;;;21.80;36.40;;;;;;5034249;28;20365;-62
2023/05/19 05:17:14;;;;;;;1.48;0.85;;;21.80;36.40;;;;;;5053228;28;21188;-62
2023/05/19 05:19:41;;;;;;;3.00;1.17;;;21.80;36.40;;;;;;5038313;28;20039;-63
2023/05/19 05:22:07;;;;;;;1.77;0.90;;;21.80;36.40;;;;;;5036085;28;20104;-64
2023/05/19 05:24:37;;;;;;;3.20;0.88;;;21.80;36.40;;;;;;5040654;28;20454;-63
2023/05/19 05:27:04;;;;;;;1.65;0.93;;;21.80;36.50;;;;;;5039890;28;20020;-65
2023/05/19 05:29:31;;;;;;;2.47;0.95;;;21.80;36.50;;;;;;5042510;28;20025;-64
2023/05/19 05:31:57;;;;;;;2.67;0.70;;;21.80;36.60;;;;;;5057105;28;20039;-62
2023/05/19 05:34:23;;;;;;;2.45;0.95;;;21.80;36.70;;;;;;5059644;28;20043;-63
2023/05/19 05:36:49;;;;;;;2.30;1.00;;;21.80;36.70;;;;;;5058407;28;20040;-63
2023/05/19 05:39:16;;;;;;;1.27;0.90;;;21.80;36.70;;;;;;5020676;28;20048;-62
2023/05/19 05:41:43;;;;;;;3.10;1.02;;;21.80;36.80;;;;;;5039868;28;20025;-63
2023/05/19 05:44:11;;;;;;;3.25;0.90;;;21.70;36.70;;;;;;5039825;28;20041;-62
2023/05/19 05:46:38;;;;;;;1.95;0.90;;;21.80;36.80;;;;;;5038531;28;20033;-62
2023/05/19 05:49:04;;;;;;;3.08;0.85;;;21.80;36.80;;;;;;5037989;28;20021;-63
2023/05/19 05:51:31;;;;;;;1.75;0.80;;;21.70;36.70;;;;;;5046233;28;20040;-61
2023/05/19 05:54:00;;;;;;;2.40;1.00;;;21.80;36.80;;;;;;5038857;28;20349;-61
2023/05/19 05:56:32;;;;;;;1.48;0.80;;;21.70;36.70;;;;;;5044382;28;20097;-62
2023/05/19 05:58:59;;;;;;;3.35;1.05;;;21.70;36.70;;;;;;5034126;28;20066;-62
2023/05/19 06:01:25;;;;;;;1.35;0.70;;;21.80;36.80;;;;;;5035836;28;20109;-61
2023/05/19 06:03:52;;;;;;;4.22;1.10;;;21.70;36.70;;;;;;5036069;28;20079;-61
2023/05/19 06:06:21;;;;;;;2.95;1.05;;;21.70;36.70;;;;;;5033692;28;20029;-61
2023/05/19 06:08:47;;;;;;;2.13;0.70;;;21.70;36.80;;;;;;5034665;28;20037;-64
2023/05/19 06:11:13;;;;;;;1.77;0.70;;;21.70;36.80;;;;;;5042872;28;20024;-60
2023/05/19 06:13:40;;;;;;;1.88;1.00;;;21.70;36.90;;;;;;5034857;28;20021;-61
2023/05/19 06:16:08;;;;;;;1.75;1.00;;;21.70;36.90;;;;;;5033913;28;20029;-62
2023/05/19 06:18:40;;;;;;;1.73;0.80;;;21.70;36.90;;;;;;5037096;28;20024;-62
2023/05/19 06:21:09;;;;;;;1.88;0.90;;;21.70;36.80;;;;;;5059244;28;20366;-62
2023/05/19 06:23:35;;;;;;;2.63;1.15;;;21.70;36.80;;;;;;5039404;28;20020;-63
2023/05/19 06:26:03;;;;;;;2.83;0.80;;;21.70;36.80;;;;;;5038827;28;20456;-61
2023/05/19 06:28:30;;;;;;;1.95;0.80;;;21.80;36.80;;;;;;5055223;28;20033;-61
2023/05/19 06:30:56;;;;;;;3.35;1.00;;;21.70;36.70;;;;;;5034536;28;20439;-62
2023/05/19 06:33:49;;;;;;;2.60;1.10;;;21.70;36.70;;;;;;5027866;28;20033;-61
2023/05/19 06:36:15;;;;;;;4.88;0.85;;;21.70;36.80;;;;;;5042309;28;20040;-62
2023/05/19 06:38:42;;;;;;;2.15;0.93;;;21.70;36.80;;;;;;5035537;28;20138;-62
2023/05/19 06:41:10;;;;;;;2.75;1.00;;;21.70;36.90;;;;;;5035511;28;20025;-62
2023/05/19 06:43:36;;;;;;;2.75;1.20;;;21.70;36.80;;;;;;5048458;28;20046;-62
2023/05/19 06:46:03;;;;;;;3.40;1.10;;;21.70;36.80;;;;;;5029987;28;20409;-62
2023/05/19 06:48:30;;;;;;;2.03;0.80;;;21.70;36.80;;;;;;5033975;28;20455;-62
2023/05/19 06:50:57;;;;;;;2.42;1.17;;;21.70;36.70;;;;;;5025931;28;20037;-61
2023/05/19 06:53:23;;;;;;;2.75;1.10;;;21.70;36.70;;;;;;5029236;28;20171;-63
2023/05/19 06:55:51;;;;;;;2.97;1.00;;;21.70;36.70;;;;;;5032075;28;20131;-61
2023/05/19 06:58:19;;;;;;;2.95;1.00;;;21.70;36.70;;;;;;5035561;28;20026;-63
2023/05/19 07:00:45;;;;;;;3.90;0.80;;;21.70;37.30;;;;;;5032287;28;20120;-63
2023/05/19 07:03:14;;;;;;;2.40;1.05;;;21.70;36.70;;;;;;5032364;28;20494;-61
2023/05/19 07:05:40;;;;;;;2.70;1.23;;;21.70;36.80;;;;;;5029290;28;20050;-63
2023/05/19 07:08:19;;;;;;;1.77;1.00;;;21.70;36.80;;;;;;5032673;28;20397;-64
2023/05/19 07:10:49;;;;;;;2.53;1.00;;;21.70;36.80;;;;;;5033694;28;20045;-63
2023/05/19 07:13:34;;;;;;;3.75;1.17;;;21.80;36.80;;;;;;5030956;28;20021;-62
2023/05/19 07:16:04;;;;;;;2.38;0.90;;;21.70;36.70;;;;;;5029472;28;20434;-62
2023/05/19 07:18:40;;;;;;;3.08;1.20;;;21.70;36.70;;;;;;5035145;28;20112;-62
2023/05/19 07:21:11;;;;;;;3.85;1.40;;;21.80;36.80;;;;;;5013760;28;20021;-63
2023/05/19 07:23:45;;;;;;;3.10;1.10;;;21.80;36.80;;;;;;5030487;28;20025;-62
2023/05/19 07:26:16;;;;;;;1.98;1.15;;;21.80;36.80;;;;;;5033275;28;20036;-63
2023/05/19 07:28:44;;;;;;;5.50;1.10;;;21.80;36.80;;;;;;5035760;28;20065;-63
2023/05/19 07:31:18;;;;;;;4.68;1.58;;;21.80;36.80;;;;;;5035972;28;20044;-62
2023/05/19 07:33:48;;;;;;;3.35;1.40;;;21.80;36.80;;;;;;5030277;28;20021;-64
2023/05/19 07:36:16;;;;;;;4.25;1.25;;;21.80;36.80;;;;;;5029886;28;20159;-61
2023/05/19 07:38:48;;;;;;;3.63;1.40;;;21.80;36.80;;;;;;5024545;28;20371;-62
2023/05/19 07:41:17;;;;;;;3.40;1.30;;;21.80;36.80;;;;;;5027202;28;20029;-62
2023/05/19 07:43:46;;;;;;;3.63;1.40;;;21.80;36.80;;;;;;5030448;28;20049;-62
2023/05/19 07:46:12;;;;;;;4.35;1.55;;;21.80;36.80;;;;;;5030619;28;20091;-61
2023/05/19 07:48:38;;;;;;;4.28;1.38;;;21.80;36.80;;;;;;5030064;28;20521;-62
2023/05/19 07:51:04;;;;;;;2.90;1.20;;;21.80;36.80;;;;;;5028326;28;20479;-62
2023/05/19 07:53:30;;;;;;;3.95;1.35;;;21.80;36.80;;;;;;5035375;28;20032;-61
2023/05/19 07:55:56;;;;;;;4.22;1.45;;;21.80;36.70;;;;;;5033253;28;20025;-63
2023/05/19 07:58:21;;;;;;;2.90;0.90;;;21.80;36.60;;;;;;5039832;28;20403;-61
2023/05/19 08:00:48;;;;;;;3.17;1.30;;;21.90;36.60;;;;;;5046008;28;20140;-62
2023/05/19 08:03:16;;;;;;;3.35;1.02;;;21.80;36.40;;;;;;5035806;28;20475;-60
2023/05/19 08:05:42;;;;;;;1.67;1.25;;;21.90;36.40;;;;;;5037609;28;20511;-61
2023/05/19 08:08:08;;;;;;;1.45;0.90;;;21.90;36.30;;;;;;5042856;28;20128;-61
2023/05/19 08:10:34;;;;;;;2.17;0.85;;;21.90;36.30;;;;;;5040196;28;20029;-61
2023/05/19 08:12:59;;;;;;;2.08;0.93;;;21.90;36.20;;;;;;5037736;28;20052;-64
2023/05/19 08:15:25;;;;;;;2.92;1.10;;;21.90;36.10;;;;;;5036588;28;20025;-61
2023/05/19 08:17:52;;;;;;;2.92;0.88;;;21.90;36.00;;;;;;5039000;28;20119;-61
2023/05/19 08:20:18;;;;;;;3.33;1.25;;;21.90;36.00;;;;;;5039401;28;20476;-62
2023/05/19 08:22:43;;;;;;;1.60;0.80;;;21.90;35.90;;;;;;5040356;28;20423;-62
2023/05/19 08:25:10;;;;;;;2.08;1.02;;;21.90;35.80;;;;;;5040819;28;20136;-63
2023/05/19 08:27:36;;;;;;;3.92;1.17;;;21.90;35.70;;;;;;5038675;28;20207;-62
2023/05/19 08:30:02;;;;;;;2.58;0.90;;;21.90;35.60;;;;;;5041247;28;20108;-62
2023/05/19 08:32:27;;;;;;;1.40;0.70;;;21.90;35.60;;;;;;5040281;28;20052;-60
2023/05/19 08:34:53;;;;;;;2.05;0.75;;;21.90;35.50;;;;;;5036644;28;20033;-60
2023/05/19 08:37:19;;;;;;;2.80;0.95;;;22.00;35.50;;;;;;5041182;28;20160;-62
2023/05/19 08:39:45;;;;;;;2.88;1.00;;;21.90;35.40;;;;;;5040814;28;20044;-60
2023/05/19 08:42:11;;;;;;;2.25;0.90;;;22.00;35.40;;;;;;5040127;28;20449;-61
2023/05/19 08:44:44;;;;;;;2.55;0.90;;;21.90;35.20;;;;;;5043285;28;20340;-68
2023/05/19 08:47:12;;;;;;;2.63;1.05;;;22.00;35.20;;;;;;5038433;28;20033;-65
2023/05/19 08:49:51;;;;;;;2.88;0.90;;;22.00;35.40;;;;;;5040733;28;20407;-65
2023/05/19 08:52:31;;;;;;;3.15;0.85;;;22.00;35.70;;;;;;5038968;28;20113;-63
2023/05/19 08:55:20;;;;;;;2.28;1.00;;;22.00;35.80;;;;;;5035691;28;20073;-63
2023/05/19 08:57:50;;;;;;;2.30;1.00;;;22.10;35.90;;;;;;5037678;28;20032;-63
2023/05/19 09:00:18;;;;;;;2.78;0.95;;;22.20;35.90;;;;;;5033534;28;20215;-62
2023/05/19 09:02:49;;;;;;;2.53;0.90;;;22.30;35.70;;;;;;5035453;28;20318;-61
2023/05/19 09:05:18;;;;;;;1.75;0.90;;;22.30;35.50;;;;;;5031745;28;20040;-60
2023/05/19 09:07:45;;;;;;;0.95;0.63;;;22.30;35.30;;;;;;5030820;28;20040;-59
2023/05/19 09:10:13;;;;;;;1.35;0.80;;;22.40;35.10;;;;;;5030910;28;20112;-60
2023/05/19 09:12:44;;;;;;;2.33;1.10;;;22.40;34.90;;;;;;5031035;28;20168;-60
2023/05/19 09:15:11;;;;;;;2.25;0.77;;;22.40;34.70;;;;;;5030551;28;22037;-61
2023/05/19 09:17:38;;;;;;;2.75;1.27;;;22.40;34.50;;;;;;5030912;28;20184;-63
2023/05/19 09:20:11;;;;;;;1.85;0.80;;;22.40;34.30;;;;;;5030859;28;20049;-61
2023/05/19 09:22:46;;;;;;;1.77;0.80;;;22.40;34.10;;;;;;5029792;28;20041;-60
2023/05/19 09:25:24;;;;;;;;;;;22.40;33.90;;;;;;5030457;28;20107;-60
2023/05/19 09:27:50;;;;;;;2.00;0.80;;;22.40;33.80;;;;;;5033046;28;19955;-59
2023/05/19 09:30:16;;;;;;;2.17;0.60;;;22.40;33.70;;;;;;5030152;28;20037;-61
2023/05/19 09:32:43;;;;;;;3.03;0.90;;;22.40;33.60;;;;;;5030636;28;20456;-60
2023/05/19 09:35:10;;;;;;;2.00;0.70;;;22.40;33.50;;;;;;5029290;28;20388;-59
2023/05/19 09:37:39;;;;;;;2.80;0.80;;;22.40;33.40;;;;;;5030517;28;20540;-60
2023/05/19 09:40:08;;;;;;;1.67;0.70;;;22.40;33.30;;;;;;5030326;28;20033;-59
2023/05/19 09:42:37;;;;;;;1.55;0.70;;;22.40;33.30;;;;;;5030218;28;20044;-61
2023/05/19 09:45:03;;;;;;;2.90;0.93;;;22.40;33.20;;;;;;5029921;28;20041;-62
2023/05/19 09:47:40;;;;;;;1.85;0.55;;;22.40;33.10;;;;;;5012521;28;20325;-60
2023/05/19 09:50:08;;;;;;;1.98;1.00;;;22.40;33.10;;;;;;5030735;28;20025;-60
2023/05/19 09:52:35;;;;;;;2.28;0.80;;;22.40;33.00;;;;;;5030299;28;20397;-63
2023/05/19 09:55:03;;;;;;;1.83;0.70;;;22.40;33.00;;;;;;5028230;28;20030;-60
2023/05/19 09:57:35;;;;;;;1.27;0.57;;;22.40;32.90;;;;;;5030566;28;20080;-58
2023/05/19 10:00:10;;;;;;;1.50;0.52;;;22.40;32.90;;;;;;5029793;28;20424;-60
2023/05/19 10:02:41;;;;;;;2.10;0.80;;;22.40;32.90;;;;;;5029555;28;20038;-60
2023/05/19 10:05:09;;;;;;;1.80;0.80;;;22.40;32.90;;;;;;5048487;28;20061;-60
2023/05/19 10:07:36;;;;;;;2.13;0.77;;;22.40;32.90;;;;;;5042975;28;20032;-58
2023/05/19 10:10:03;;;;;;;2.45;0.90;;;22.40;32.90;;;;;;5034926;28;20082;-56
2023/05/19 10:12:30;;;;;;;2.55;0.80;;;22.40;32.90;;;;;;5042376;28;20037;-59
2023/05/19 10:14:58;;;;;;;2.75;0.90;;;22.40;33.00;;;;;;5038090;28;20171;-60
2023/05/19 10:17:24;;;;;;;2.00;0.75;;;22.40;33.30;;;;;;5029033;28;20133;-60
2023/05/19 10:19:51;;;;;;;1.85;0.90;;;22.40;33.60;;;;;;5042456;28;20103;-61
2023/05/19 10:22:17;;;;;;;2.22;1.10;;;22.40;33.70;;;;;;5045164;28;20160;-59
2023/05/19 10:24:43;;;;;;;1.98;0.80;;;22.40;33.80;;;;;;5031099;28;20034;-61
2023/05/19 10:27:14;;;;;;;2.03;0.88;;;22.40;33.90;;;;;;5028825;28;20085;-61
2023/05/19 10:29:44;;;;;;;2.08;0.75;;;22.40;33.90;;;;;;5029533;28;20087;-59
2023/05/19 10:32:15;;;;;;;1.00;0.65;;;22.40;34.00;;;;;;5029218;28;20398;-60
2023/05/19 10:35:18;;;;;;;2.65;0.93;;;22.40;34.00;;;;;;5028774;28;20101;-61
2023/05/19 10:38:15;;;;;;;1.75;0.80;;;22.50;34.00;;;;;;5035271;28;20031;-58
2023/05/19 10:41:08;;;;;;;2.47;1.10;;;22.50;33.90;;;;;;5033948;28;20093;-61
2023/05/19 10:43:44;;;;;;;1.40;0.82;;;22.50;33.80;;;;;;5037481;28;20131;-62
2023/05/19 10:46:09;;;;;;;2.45;1.15;;;22.50;33.80;;;;;;5051168;28;20081;-61
2023/05/19 10:48:35;;;;;;;1.23;0.70;;;22.50;33.80;;;;;;5031718;28;20025;-55
2023/05/19 10:51:02;;;;;;;1.45;0.73;;;22.50;33.80;;;;;;5050089;28;20083;-59
2023/05/19 10:53:32;;;;;;;1.88;0.68;;;22.50;33.80;;;;;;5049090;28;20406;-59
2023/05/19 10:56:05;;;;;;;2.10;0.90;;;22.50;33.80;;;;;;5050069;28;20036;-59
2023/05/19 10:58:43;;;;;;;2.95;0.82;;;22.50;33.80;;;;;;5036968;28;20331;-61
2023/05/19 11:01:13;;;;;;;2.92;0.90;;;22.50;33.80;;;;;;5051869;28;20044;-60
2023/05/19 11:03:52;;;;;;;3.17;1.00;;;22.50;33.70;;;;;;5059142;28;20475;-59
2023/05/19 11:06:26;;;;;;;1.88;0.75;;;22.50;34.30;;;;;;5052718;28;20064;-60
2023/05/19 11:09:00;;;;;;;2.00;0.70;;;22.50;33.70;;;;;;5053041;28;20463;-61
2023/05/19 11:11:42;;;;;;;;;;;22.60;33.70;;;;;;5035154;28;20472;-62
2023/05/19 11:14:11;;;;;;;1.63;0.70;;;22.60;33.70;;;;;;5053025;28;19908;-58
2023/05/19 11:16:40;;;;;;;2.53;0.85;;;22.60;33.60;;;;;;5053760;28;20161;-61
2023/05/19 11:19:08;;;;;;;1.60;0.80;;;22.60;33.60;;;;;;5054198;28;20029;-60
2023/05/19 11:21:54;;;;;;;1.80;0.60;;;22.60;33.60;;;;;;5067241;28;20345;-63
2023/05/19 11:24:46;;;;;;;1.10;0.73;;;22.60;33.50;;;;;;5073027;28;20025;-60
2023/05/19 11:27:31;;;;;;;4.45;1.30;;;22.60;33.50;;;;;;5061021;28;20029;-63
2023/05/19 11:30:05;;;;;;;;;;;22.60;33.50;;;;;;5035097;28;20436;-62
2023/05/19 11:32:33;;;;;;;2.50;0.70;;;22.60;33.50;;;;;;5056237;28;20216;-62
2023/05/19 11:34:59;;;;;;;1.67;0.70;;;22.60;33.50;;;;;;5056952;28;20130;-62
2023/05/19 11:37:27;;;;;;;1.90;0.85;;;22.60;33.50;;;;;;5059399;28;20028;-62
2023/05/19 11:39:53;;;;;;;1.67;0.75;;;22.60;33.50;;;;;;5060282;28;20452;-61
2023/05/19 11:42:19;;;;;;;2.03;0.95;;;22.60;33.50;;;;;;5058972;28;20092;-59
2023/05/19 11:44:45;;;;;;;2.42;0.90;;;22.70;33.60;;;;;;5064537;28;20105;-63
2023/05/19 11:47:15;;;;;;;3.53;0.90;;;22.70;33.60;;;;;;5063215;28;20060;-60
2023/05/19 11:49:47;;;;;;;2.70;0.85;;;22.70;33.60;;;;;;5051978;28;20039;-61
2023/05/19 11:52:13;;;;;;;2.33;0.82;;;22.70;33.50;;;;;;5042507;28;20176;-63
2023/05/19 11:54:40;;;;;;;2.17;0.88;;;22.70;33.60;;;;;;5062077;28;20028;-62
2023/05/19 11:57:09;;;;;;;1.67;0.82;;;22.70;33.50;;;;;;5050847;28;20052;-60
2023/05/19 11:59:37;;;;;;;3.03;0.90;;;22.70;33.50;;;;;;5052529;28;20340;-60
2023/05/19 12:02:21;;;;;;;1.75;0.80;;;22.70;33.50;;;;;;5047508;28;20033;-60
2023/05/19 12:04:50;;;;;;;3.65;0.80;;;22.70;33.40;;;;;;5056897;28;20025;-61
2023/05/19 12:07:18;;;;;;;1.77;0.65;;;22.80;33.50;;;;;;5055002;28;20077;-62
2023/05/19 12:09:48;;;;;;;1.80;0.70;;;22.80;33.50;;;;;;5017506;28;20037;-61
2023/05/19 12:12:16;;;;;;;1.70;0.90;;;22.80;33.50;;;;;;5059677;28;20063;-61
2023/05/19 12:14:42;;;;;;;1.40;0.65;;;22.80;33.50;;;;;;5061630;28;20039;-59
2023/05/19 12:17:15;;;;;;;1.77;0.80;;;22.80;33.40;;;;;;5062767;28;20462;-62
2023/05/19 12:19:45;;;;;;;2.80;1.02;;;22.80;33.30;;;;;;5064330;28;20052;-61
2023/05/19 12:22:11;;;;;;;2.08;0.80;;;22.90;33.20;;;;;;5052045;28;20109;-60
2023/05/19 12:24:37;;;;;;;2.15;0.70;;;22.80;33.10;;;;;;5051791;28;20060;-64
2023/05/19 12:27:18;;;;;;;3.28;1.20;;;22.80;33.10;;;;;;5051383;28;20040;-60
2023/05/19 12:29:50;;;;;;;2.38;0.90;;;22.90;33.30;;;;;;5051746;28;20045;-61
2023/05/19 12:32:16;;;;;;;1.75;0.90;;;22.90;33.20;;;;;;5051210;28;20316;-59
2023/05/19 12:34:42;;;;;;;2.50;0.80;;;22.90;33.20;;;;;;5052362;28;20029;-61
2023/05/19 12:37:09;;;;;;;3.15;0.82;;;22.90;33.10;;;;;;5043722;28;20024;-61
2023/05/19 12:39:36;;;;;;;3.38;1.00;;;22.90;33.10;;;;;;5050950;28;20037;-60
2023/05/19 12:42:09;;;;;;;1.70;0.70;;;22.90;33.10;;;;;;5051364;28;20380;-60
2023/05/19 12:44:45;;;;;;;2.85;1.08;;;23.00;33.20;;;;;;5049942;28;20329;-62
2023/05/19 12:47:12;;;;;;;3.13;0.90;;;23.00;33.20;;;;;;5051906;28;20036;-62
2023/05/19 12:49:55;;;;;;;1.70;1.00;;;23.00;33.20;;;;;;5051668;28;20154;-62
2023/05/19 12:52:25;;;;;;;1.70;1.00;;;23.00;33.00;;;;;;5051504;28;20115;-61
2023/05/19 12:55:05;;;;;;;4.22;0.90;;;23.00;33.70;;;;;;5033269;28;20421;-61
2023/05/19 12:57:34;;;;;;;2.55;0.90;;;23.00;33.00;;;;;;5050213;28;20068;-60
2023/05/19 13:00:05;;;;;;;1.85;0.82;;;23.00;33.00;;;;;;5030483;28;20073;-60